sensor_id;sensor_type;location;lat;lon;timestamp;P1;durP1;ratioP1;P2;durP2;ratioP2
45476;SDS011;31958;51.756;-2.556;2023-05-16T00:00:01;2.15;;;0.80;;
45476;SDS011;31958;51.756;-2.556;2023-05-16T00:02:30;4.10;;;1.20;;
45476;SDS011;31958;51.756;-2.556;2023-05-16T00:04:56;3.90;;;0.70;;
45476;SDS011;31958;51.756;-2.556;2023-05-16T00:07:21;3.65;;;0.88;;
45476;SDS011;31958;51.756;-2.556;2023-05-16T00:09:47;3.92;;;1.02;;
45476;SDS011;31958;51.756;-2.556;2023-05-16T00:12:12;1.00;;;0.70;;
45476;SDS011;31958;51.756;-2.556;2023-05-16T00:14:38;2.33;;;1.00;;
45476;SDS011;31958;51.756;-2.556;2023-05-16T00:17:03;4.25;;;1.00;;
45476;SDS011;31958;51.756;-2.556;2023-05-16T00:19:35;19.85;;;1.15;;
45476;SDS011;31958;51.756;-2.556;2023-05-16T00:22:01;2.25;;;0.90;;
45476;SDS011;31958;51.756;-2.556;2023-05-16T00:24:28;1.75;;;1.00;;
45476;SDS011;31958;51.756;-2.556;2023-05-16T00:26:53;3.97;;;1.00;;
45476;SDS011;31958;51.756;-2.556;2023-05-16T00:29:18;0.60;;;0.50;;
45476;SDS011;31958;51.756;-2.556;2023-05-16T00:31:44;1.83;;;1.33;;
45476;SDS011;31958;51.756;-2.556;2023-05-16T00:34:09;2.28;;;0.85;;
45476;SDS011;31958;51.756;-2.556;2023-05-16T00:36:35;1.42;;;0.77;;
45476;SDS011;31958;51.756;-2.556;2023-05-16T00:39:00;7.65;;;1.27;;
45476;SDS011;31958;51.756;-2.556;2023-05-16T00:41:25;1.27;;;0.77;;
45476;SDS011;31958;51.756;-2.556;2023-05-16T00:43:51;9.07;;;0.98;;
45476;SDS011;31958;51.756;-2.556;2023-05-16T00:46:17;1.55;;;0.68;;
45476;SDS011;31958;51.756;-2.556;2023-05-16T00:48:42;8.00;;;0.85;;
45476;SDS011;31958;51.756;-2.556;2023-05-16T00:51:07;1.15;;;0.75;;
45476;SDS011;31958;51.756;-2.556;2023-05-16T00:53:33;1.30;;;0.80;;
45476;SDS011;31958;51.756;-2.556;2023-05-16T00:56:00;3.50;;;1.25;;
45476;SDS011;31958;51.756;-2.556;2023-05-16T00:58:26;7.57;;;1.35;;
45476;SDS011;31958;51.756;-2.556;2023-05-16T01:00:52;5.43;;;0.90;;
45476;SDS011;31958;51.756;-2.556;2023-05-16T01:03:17;1.27;;;0.90;;
45476;SDS011;31958;51.756;-2.556;2023-05-16T01:05:43;8.93;;;0.80;;
45476;SDS011;31958;51.756;-2.556;2023-05-16T01:08:08;1.67;;;0.90;;
45476;SDS011;31958;51.756;-2.556;2023-05-16T01:10:46;11.45;;;1.20;;
45476;SDS011;31958;51.756;-2.556;2023-05-16T01:16:21;9.00;;;1.17;;
45476;SDS011;31958;51.756;-2.556;2023-05-16T01:24:13;7.22;;;1.00;;
45476;SDS011;31958;51.756;-2.556;2023-05-16T01:26:45;2.15;;;0.90;;
45476;SDS011;31958;51.756;-2.556;2023-05-16T01:29:10;6.50;;;1.08;;
45476;SDS011;31958;51.756;-2.556;2023-05-16T01:31:36;2.30;;;1.10;;
45476;SDS011;31958;51.756;-2.556;2023-05-16T01:34:01;1.42;;;0.73;;
45476;SDS011;31958;51.756;-2.556;2023-05-16T01:39:30;2.50;;;0.88;;
45476;SDS011;31958;51.756;-2.556;2023-05-16T01:42:11;7.70;;;0.77;;
45476;SDS011;31958;51.756;-2.556;2023-05-16T01:44:45;3.90;;;0.77;;
45476;SDS011;31958;51.756;-2.556;2023-05-16T01:47:28;8.63;;;1.38;;
45476;SDS011;31958;51.756;-2.556;2023-05-16T01:50:08;1.92;;;0.90;;
45476;SDS011;31958;51.756;-2.556;2023-05-16T01:52:37;5.18;;;1.40;;
45476;SDS011;31958;51.756;-2.556;2023-05-16T01:55:09;9.13;;;1.73;;
45476;SDS011;31958;51.756;-2.556;2023-05-16T01:57:36;2.42;;;1.25;;
45476;SDS011;31958;51.756;-2.556;2023-05-16T02:00:03;5.13;;;0.95;;
45476;SDS011;31958;51.756;-2.556;2023-05-16T02:02:29;6.28;;;0.88;;
45476;SDS011;31958;51.756;-2.556;2023-05-16T02:04:55;0.65;;;0.50;;
45476;SDS011;31958;51.756;-2.556;2023-05-16T02:07:20;1.88;;;1.48;;
45476;SDS011;31958;51.756;-2.556;2023-05-16T02:09:46;1.08;;;0.60;;
45476;SDS011;31958;51.756;-2.556;2023-05-16T02:12:11;2.45;;;0.90;;
45476;SDS011;31958;51.756;-2.556;2023-05-16T02:14:37;3.22;;;0.75;;
45476;SDS011;31958;51.756;-2.556;2023-05-16T02:17:02;3.42;;;0.90;;
45476;SDS011;31958;51.756;-2.556;2023-05-16T02:19:28;1.60;;;0.63;;
45476;SDS011;31958;51.756;-2.556;2023-05-16T02:21:53;10.35;;;1.48;;
45476;SDS011;31958;51.756;-2.556;2023-05-16T02:24:18;7.72;;;1.27;;
45476;SDS011;31958;51.756;-2.556;2023-05-16T02:26:44;6.82;;;0.85;;
45476;SDS011;31958;51.756;-2.556;2023-05-16T02:29:09;8.68;;;1.15;;
45476;SDS011;31958;51.756;-2.556;2023-05-16T02:31:35;1.90;;;0.73;;
45476;SDS011;31958;51.756;-2.556;2023-05-16T02:34:01;0.98;;;0.68;;
45476;SDS011;31958;51.756;-2.556;2023-05-16T02:36:26;2.30;;;0.95;;
45476;SDS011;31958;51.756;-2.556;2023-05-16T02:38:52;1.17;;;0.70;;
45476;SDS011;31958;51.756;-2.556;2023-05-16T02:41:17;2.35;;;0.98;;
45476;SDS011;31958;51.756;-2.556;2023-05-16T02:43:43;6.40;;;1.20;;
45476;SDS011;31958;51.756;-2.556;2023-05-16T02:46:30;0.88;;;0.55;;
45476;SDS011;31958;51.756;-2.556;2023-05-16T02:48:55;3.95;;;0.80;;
45476;SDS011;31958;51.756;-2.556;2023-05-16T02:51:21;1.27;;;0.60;;
45476;SDS011;31958;51.756;-2.556;2023-05-16T02:53:47;6.05;;;0.73;;
45476;SDS011;31958;51.756;-2.556;2023-05-16T02:56:13;4.90;;;0.90;;
45476;SDS011;31958;51.756;-2.556;2023-05-16T02:58:39;5.32;;;0.50;;
45476;SDS011;31958;51.756;-2.556;2023-05-16T03:01:04;2.60;;;1.00;;
45476;SDS011;31958;51.756;-2.556;2023-05-16T03:03:30;1.15;;;0.82;;
45476;SDS011;31958;51.756;-2.556;2023-05-16T03:05:55;2.50;;;0.93;;
45476;SDS011;31958;51.756;-2.556;2023-05-16T03:08:20;2.47;;;0.77;;
45476;SDS011;31958;51.756;-2.556;2023-05-16T03:10:46;4.28;;;1.00;;
45476;SDS011;31958;51.756;-2.556;2023-05-16T03:13:11;2.90;;;0.70;;
45476;SDS011;31958;51.756;-2.556;2023-05-16T03:15:36;11.75;;;1.55;;
45476;SDS011;31958;51.756;-2.556;2023-05-16T03:18:02;5.57;;;1.10;;
45476;SDS011;31958;51.756;-2.556;2023-05-16T03:20:27;1.85;;;0.90;;
45476;SDS011;31958;51.756;-2.556;2023-05-16T03:22:53;5.68;;;0.40;;
45476;SDS011;31958;51.756;-2.556;2023-05-16T03:25:18;0.68;;;0.52;;
45476;SDS011;31958;51.756;-2.556;2023-05-16T03:27:43;0.82;;;0.57;;
45476;SDS011;31958;51.756;-2.556;2023-05-16T03:30:09;17.05;;;1.58;;
45476;SDS011;31958;51.756;-2.556;2023-05-16T03:32:36;5.18;;;0.75;;
45476;SDS011;31958;51.756;-2.556;2023-05-16T03:35:02;4.05;;;1.10;;
45476;SDS011;31958;51.756;-2.556;2023-05-16T03:37:27;1.48;;;0.70;;
45476;SDS011;31958;51.756;-2.556;2023-05-16T03:39:53;7.35;;;0.88;;
45476;SDS011;31958;51.756;-2.556;2023-05-16T03:42:18;4.50;;;0.70;;
45476;SDS011;31958;51.756;-2.556;2023-05-16T03:44:44;2.83;;;0.88;;
45476;SDS011;31958;51.756;-2.556;2023-05-16T03:47:09;3.80;;;0.75;;
45476;SDS011;31958;51.756;-2.556;2023-05-16T03:49:35;1.52;;;0.93;;
45476;SDS011;31958;51.756;-2.556;2023-05-16T03:52:03;8.73;;;1.13;;
45476;SDS011;31958;51.756;-2.556;2023-05-16T03:54:29;6.43;;;0.70;;
45476;SDS011;31958;51.756;-2.556;2023-05-16T03:56:55;0.70;;;0.50;;
45476;SDS011;31958;51.756;-2.556;2023-05-16T03:59:20;9.98;;;0.80;;
45476;SDS011;31958;51.756;-2.556;2023-05-16T04:01:46;6.45;;;1.13;;
45476;SDS011;31958;51.756;-2.556;2023-05-16T04:04:11;1.17;;;0.77;;
45476;SDS011;31958;51.756;-2.556;2023-05-16T04:06:38;2.83;;;0.88;;
45476;SDS011;31958;51.756;-2.556;2023-05-16T04:09:03;3.80;;;1.08;;
45476;SDS011;31958;51.756;-2.556;2023-05-16T04:11:30;1.58;;;1.13;;
45476;SDS011;31958;51.756;-2.556;2023-05-16T04:13:56;2.58;;;1.00;;
45476;SDS011;31958;51.756;-2.556;2023-05-16T04:16:21;2.30;;;0.93;;
45476;SDS011;31958;51.756;-2.556;2023-05-16T04:18:47;4.18;;;0.70;;
45476;SDS011;31958;51.756;-2.556;2023-05-16T04:21:12;2.05;;;0.95;;
45476;SDS011;31958;51.756;-2.556;2023-05-16T04:23:39;3.80;;;0.57;;
45476;SDS011;31958;51.756;-2.556;2023-05-16T04:26:05;2.67;;;0.98;;
45476;SDS011;31958;51.756;-2.556;2023-05-16T04:28:30;4.22;;;0.85;;
45476;SDS011;31958;51.756;-2.556;2023-05-16T04:30:56;2.63;;;1.05;;
45476;SDS011;31958;51.756;-2.556;2023-05-16T04:33:21;5.60;;;0.90;;
45476;SDS011;31958;51.756;-2.556;2023-05-16T04:35:47;1.73;;;1.27;;
45476;SDS011;31958;51.756;-2.556;2023-05-16T04:38:12;1.42;;;0.70;;
45476;SDS011;31958;51.756;-2.556;2023-05-16T04:40:38;5.20;;;1.02;;
45476;SDS011;31958;51.756;-2.556;2023-05-16T04:43:05;1.13;;;0.63;;
45476;SDS011;31958;51.756;-2.556;2023-05-16T04:45:31;6.22;;;0.90;;
45476;SDS011;31958;51.756;-2.556;2023-05-16T04:47:57;11.15;;;1.10;;
45476;SDS011;31958;51.756;-2.556;2023-05-16T04:50:22;0.60;;;0.50;;
45476;SDS011;31958;51.756;-2.556;2023-05-16T04:52:48;1.00;;;0.60;;
45476;SDS011;31958;51.756;-2.556;2023-05-16T04:55:13;3.35;;;1.17;;
45476;SDS011;31958;51.756;-2.556;2023-05-16T04:57:38;3.30;;;0.98;;
45476;SDS011;31958;51.756;-2.556;2023-05-16T05:00:05;2.10;;;0.85;;
45476;SDS011;31958;51.756;-2.556;2023-05-16T05:02:36;1.13;;;0.60;;
45476;SDS011;31958;51.756;-2.556;2023-05-16T05:05:02;2.47;;;1.35;;
45476;SDS011;31958;51.756;-2.556;2023-05-16T05:07:28;3.65;;;0.80;;
45476;SDS011;31958;51.756;-2.556;2023-05-16T05:09:53;5.70;;;0.80;;
45476;SDS011;31958;51.756;-2.556;2023-05-16T05:12:20;5.22;;;1.00;;
45476;SDS011;31958;51.756;-2.556;2023-05-16T05:14:46;1.10;;;0.63;;
45476;SDS011;31958;51.756;-2.556;2023-05-16T05:17:11;1.85;;;0.80;;
45476;SDS011;31958;51.756;-2.556;2023-05-16T05:19:36;1.77;;;0.73;;
45476;SDS011;31958;51.756;-2.556;2023-05-16T05:22:02;2.50;;;0.70;;
45476;SDS011;31958;51.756;-2.556;2023-05-16T05:24:27;10.18;;;1.17;;
45476;SDS011;31958;51.756;-2.556;2023-05-16T05:26:52;3.85;;;1.20;;
45476;SDS011;31958;51.756;-2.556;2023-05-16T05:29:18;44.17;;;2.35;;
45476;SDS011;31958;51.756;-2.556;2023-05-16T05:31:43;174.18;;;8.52;;
45476;SDS011;31958;51.756;-2.556;2023-05-16T05:34:08;215.38;;;9.55;;
45476;SDS011;31958;51.756;-2.556;2023-05-16T05:36:34;28.73;;;1.85;;
45476;SDS011;31958;51.756;-2.556;2023-05-16T05:38:59;8.60;;;1.15;;
45476;SDS011;31958;51.756;-2.556;2023-05-16T05:41:24;4.75;;;1.05;;
45476;SDS011;31958;51.756;-2.556;2023-05-16T05:43:51;2.67;;;1.10;;
45476;SDS011;31958;51.756;-2.556;2023-05-16T05:46:16;2.20;;;0.85;;
45476;SDS011;31958;51.756;-2.556;2023-05-16T05:48:42;3.67;;;1.17;;
45476;SDS011;31958;51.756;-2.556;2023-05-16T05:51:07;2.53;;;0.82;;
45476;SDS011;31958;51.756;-2.556;2023-05-16T05:53:33;1.73;;;0.90;;
45476;SDS011;31958;51.756;-2.556;2023-05-16T05:55:58;1.45;;;1.00;;
45476;SDS011;31958;51.756;-2.556;2023-05-16T05:58:24;2.85;;;1.00;;
45476;SDS011;31958;51.756;-2.556;2023-05-16T06:00:49;4.97;;;1.08;;
45476;SDS011;31958;51.756;-2.556;2023-05-16T06:03:15;1.63;;;0.80;;
45476;SDS011;31958;51.756;-2.556;2023-05-16T06:05:40;3.20;;;0.90;;
45476;SDS011;31958;51.756;-2.556;2023-05-16T06:08:06;1.50;;;0.70;;
45476;SDS011;31958;51.756;-2.556;2023-05-16T06:10:31;3.20;;;0.90;;
45476;SDS011;31958;51.756;-2.556;2023-05-16T06:12:57;3.97;;;1.00;;
45476;SDS011;31958;51.756;-2.556;2023-05-16T06:15:22;1.92;;;0.80;;
45476;SDS011;31958;51.756;-2.556;2023-05-16T06:17:49;4.35;;;0.98;;
45476;SDS011;31958;51.756;-2.556;2023-05-16T06:20:14;1.90;;;0.90;;
45476;SDS011;31958;51.756;-2.556;2023-05-16T06:22:39;2.97;;;0.80;;
45476;SDS011;31958;51.756;-2.556;2023-05-16T06:25:05;2.55;;;0.80;;
45476;SDS011;31958;51.756;-2.556;2023-05-16T06:27:30;2.72;;;0.85;;
45476;SDS011;31958;51.756;-2.556;2023-05-16T06:29:56;2.80;;;0.90;;
45476;SDS011;31958;51.756;-2.556;2023-05-16T06:32:21;2.08;;;0.82;;
45476;SDS011;31958;51.756;-2.556;2023-05-16T06:34:47;3.78;;;1.00;;
45476;SDS011;31958;51.756;-2.556;2023-05-16T06:37:13;3.22;;;0.90;;
45476;SDS011;31958;51.756;-2.556;2023-05-16T06:39:38;3.28;;;1.02;;
45476;SDS011;31958;51.756;-2.556;2023-05-16T06:42:03;2.72;;;0.82;;
45476;SDS011;31958;51.756;-2.556;2023-05-16T06:44:29;2.75;;;0.90;;
45476;SDS011;31958;51.756;-2.556;2023-05-16T06:46:54;2.05;;;0.95;;
45476;SDS011;31958;51.756;-2.556;2023-05-16T06:49:19;2.47;;;0.80;;
45476;SDS011;31958;51.756;-2.556;2023-05-16T06:51:45;1.13;;;0.70;;
45476;SDS011;31958;51.756;-2.556;2023-05-16T06:54:10;2.40;;;1.00;;
45476;SDS011;31958;51.756;-2.556;2023-05-16T06:56:36;3.33;;;1.00;;
45476;SDS011;31958;51.756;-2.556;2023-05-16T06:59:01;3.45;;;1.10;;
45476;SDS011;31958;51.756;-2.556;2023-05-16T07:01:27;2.42;;;1.00;;
45476;SDS011;31958;51.756;-2.556;2023-05-16T07:03:52;3.28;;;1.20;;
45476;SDS011;31958;51.756;-2.556;2023-05-16T07:06:18;2.83;;;1.10;;
45476;SDS011;31958;51.756;-2.556;2023-05-16T07:08:43;2.85;;;1.02;;
45476;SDS011;31958;51.756;-2.556;2023-05-16T07:11:09;3.88;;;1.08;;
45476;SDS011;31958;51.756;-2.556;2023-05-16T07:13:35;3.03;;;1.00;;
45476;SDS011;31958;51.756;-2.556;2023-05-16T07:16:01;5.15;;;1.13;;
45476;SDS011;31958;51.756;-2.556;2023-05-16T07:18:27;3.08;;;1.33;;
45476;SDS011;31958;51.756;-2.556;2023-05-16T07:20:52;2.95;;;1.17;;
45476;SDS011;31958;51.756;-2.556;2023-05-16T07:23:18;3.83;;;1.42;;
45476;SDS011;31958;51.756;-2.556;2023-05-16T07:25:43;4.60;;;1.17;;
45476;SDS011;31958;51.756;-2.556;2023-05-16T07:28:09;5.45;;;1.35;;
45476;SDS011;31958;51.756;-2.556;2023-05-16T07:30:34;4.25;;;1.25;;
45476;SDS011;31958;51.756;-2.556;2023-05-16T07:33:00;5.30;;;1.10;;
45476;SDS011;31958;51.756;-2.556;2023-05-16T07:35:25;6.57;;;0.98;;
45476;SDS011;31958;51.756;-2.556;2023-05-16T07:37:51;4.30;;;1.17;;
45476;SDS011;31958;51.756;-2.556;2023-05-16T07:40:16;5.43;;;1.20;;
45476;SDS011;31958;51.756;-2.556;2023-05-16T07:42:42;3.90;;;0.90;;
45476;SDS011;31958;51.756;-2.556;2023-05-16T07:45:08;3.25;;;1.13;;
45476;SDS011;31958;51.756;-2.556;2023-05-16T07:47:33;5.03;;;1.40;;
45476;SDS011;31958;51.756;-2.556;2023-05-16T07:49:59;4.47;;;1.20;;
45476;SDS011;31958;51.756;-2.556;2023-05-16T07:52:25;3.38;;;1.00;;
45476;SDS011;31958;51.756;-2.556;2023-05-16T07:54:50;5.07;;;1.48;;
45476;SDS011;31958;51.756;-2.556;2023-05-16T07:57:16;5.13;;;1.20;;
45476;SDS011;31958;51.756;-2.556;2023-05-16T07:59:42;3.13;;;1.00;;
45476;SDS011;31958;51.756;-2.556;2023-05-16T08:02:08;9.75;;;1.50;;
45476;SDS011;31958;51.756;-2.556;2023-05-16T08:04:34;5.38;;;1.38;;
45476;SDS011;31958;51.756;-2.556;2023-05-16T08:07:00;4.32;;;1.10;;
45476;SDS011;31958;51.756;-2.556;2023-05-16T08:09:25;2.53;;;1.10;;
45476;SDS011;31958;51.756;-2.556;2023-05-16T08:11:50;5.03;;;1.00;;
45476;SDS011;31958;51.756;-2.556;2023-05-16T08:14:16;4.55;;;1.17;;
45476;SDS011;31958;51.756;-2.556;2023-05-16T08:16:42;6.47;;;1.38;;
45476;SDS011;31958;51.756;-2.556;2023-05-16T08:19:08;6.68;;;1.30;;
45476;SDS011;31958;51.756;-2.556;2023-05-16T08:21:33;6.82;;;1.48;;
45476;SDS011;31958;51.756;-2.556;2023-05-16T08:23:58;4.15;;;1.38;;
45476;SDS011;31958;51.756;-2.556;2023-05-16T08:26:24;6.32;;;1.40;;
45476;SDS011;31958;51.756;-2.556;2023-05-16T08:28:50;3.08;;;1.20;;
45476;SDS011;31958;51.756;-2.556;2023-05-16T08:31:16;4.20;;;1.13;;
45476;SDS011;31958;51.756;-2.556;2023-05-16T08:33:41;4.75;;;1.55;;
45476;SDS011;31958;51.756;-2.556;2023-05-16T08:36:08;4.03;;;1.20;;
45476;SDS011;31958;51.756;-2.556;2023-05-16T08:38:34;4.63;;;1.40;;
45476;SDS011;31958;51.756;-2.556;2023-05-16T08:40:59;5.50;;;1.20;;
45476;SDS011;31958;51.756;-2.556;2023-05-16T08:43:25;6.55;;;1.45;;
45476;SDS011;31958;51.756;-2.556;2023-05-16T08:45:50;9.75;;;1.80;;
45476;SDS011;31958;51.756;-2.556;2023-05-16T08:48:16;4.22;;;1.50;;
45476;SDS011;31958;51.756;-2.556;2023-05-16T08:50:46;6.28;;;1.50;;
45476;SDS011;31958;51.756;-2.556;2023-05-16T08:53:12;5.07;;;1.38;;
45476;SDS011;31958;51.756;-2.556;2023-05-16T08:55:39;3.67;;;1.20;;
45476;SDS011;31958;51.756;-2.556;2023-05-16T08:58:05;5.93;;;1.50;;
45476;SDS011;31958;51.756;-2.556;2023-05-16T09:00:31;3.80;;;1.02;;
45476;SDS011;31958;51.756;-2.556;2023-05-16T09:02:56;3.15;;;1.42;;
45476;SDS011;31958;51.756;-2.556;2023-05-16T09:05:21;3.97;;;1.30;;
45476;SDS011;31958;51.756;-2.556;2023-05-16T09:07:48;5.30;;;1.48;;
45476;SDS011;31958;51.756;-2.556;2023-05-16T09:10:13;4.80;;;1.33;;
45476;SDS011;31958;51.756;-2.556;2023-05-16T09:12:39;5.75;;;1.42;;
45476;SDS011;31958;51.756;-2.556;2023-05-16T09:15:06;5.55;;;1.30;;
45476;SDS011;31958;51.756;-2.556;2023-05-16T09:17:36;5.35;;;1.50;;
45476;SDS011;31958;51.756;-2.556;2023-05-16T09:22:38;7.45;;;2.00;;
45476;SDS011;31958;51.756;-2.556;2023-05-16T09:25:04;5.38;;;1.52;;
45476;SDS011;31958;51.756;-2.556;2023-05-16T09:27:30;4.38;;;1.40;;
45476;SDS011;31958;51.756;-2.556;2023-05-16T09:29:56;5.93;;;1.40;;
45476;SDS011;31958;51.756;-2.556;2023-05-16T09:32:22;5.35;;;1.27;;
45476;SDS011;31958;51.756;-2.556;2023-05-16T09:34:48;8.50;;;2.15;;
45476;SDS011;31958;51.756;-2.556;2023-05-16T09:37:15;4.97;;;1.75;;
45476;SDS011;31958;51.756;-2.556;2023-05-16T09:39:44;6.63;;;1.90;;
45476;SDS011;31958;51.756;-2.556;2023-05-16T09:42:12;7.90;;;2.03;;
45476;SDS011;31958;51.756;-2.556;2023-05-16T09:44:38;4.63;;;1.85;;
45476;SDS011;31958;51.756;-2.556;2023-05-16T09:47:03;5.55;;;1.75;;
45476;SDS011;31958;51.756;-2.556;2023-05-16T09:49:29;6.97;;;1.95;;
45476;SDS011;31958;51.756;-2.556;2023-05-16T09:51:55;4.45;;;2.10;;
45476;SDS011;31958;51.756;-2.556;2023-05-16T09:54:33;3.55;;;1.45;;
45476;SDS011;31958;51.756;-2.556;2023-05-16T09:56:59;7.55;;;1.90;;
45476;SDS011;31958;51.756;-2.556;2023-05-16T09:59:25;3.90;;;1.83;;
45476;SDS011;31958;51.756;-2.556;2023-05-16T10:01:52;5.40;;;1.52;;
45476;SDS011;31958;51.756;-2.556;2023-05-16T10:04:18;4.80;;;1.83;;
45476;SDS011;31958;51.756;-2.556;2023-05-16T10:06:43;3.25;;;1.48;;
45476;SDS011;31958;51.756;-2.556;2023-05-16T10:09:10;7.88;;;2.38;;
45476;SDS011;31958;51.756;-2.556;2023-05-16T10:11:41;4.78;;;1.88;;
45476;SDS011;31958;51.756;-2.556;2023-05-16T10:14:07;8.60;;;1.80;;
45476;SDS011;31958;51.756;-2.556;2023-05-16T10:16:34;4.85;;;1.42;;
45476;SDS011;31958;51.756;-2.556;2023-05-16T10:19:00;5.53;;;1.70;;
45476;SDS011;31958;51.756;-2.556;2023-05-16T10:21:27;3.75;;;1.83;;
45476;SDS011;31958;51.756;-2.556;2023-05-16T10:23:53;7.15;;;2.28;;
45476;SDS011;31958;51.756;-2.556;2023-05-16T10:26:21;5.35;;;1.95;;
45476;SDS011;31958;51.756;-2.556;2023-05-16T10:28:47;5.80;;;1.67;;
45476;SDS011;31958;51.756;-2.556;2023-05-16T10:31:14;7.07;;;1.90;;
45476;SDS011;31958;51.756;-2.556;2023-05-16T10:33:39;4.10;;;1.70;;
45476;SDS011;31958;51.756;-2.556;2023-05-16T10:36:05;4.40;;;1.80;;
45476;SDS011;31958;51.756;-2.556;2023-05-16T10:38:35;5.60;;;1.77;;
45476;SDS011;31958;51.756;-2.556;2023-05-16T10:41:00;6.47;;;2.00;;
45476;SDS011;31958;51.756;-2.556;2023-05-16T10:43:26;7.97;;;1.80;;
45476;SDS011;31958;51.756;-2.556;2023-05-16T10:45:58;5.03;;;1.73;;
45476;SDS011;31958;51.756;-2.556;2023-05-16T10:48:31;6.10;;;1.83;;
45476;SDS011;31958;51.756;-2.556;2023-05-16T10:50:58;6.25;;;2.10;;
45476;SDS011;31958;51.756;-2.556;2023-05-16T10:58:25;6.72;;;1.92;;
45476;SDS011;31958;51.756;-2.556;2023-05-16T11:17:15;5.70;;;2.08;;
45476;SDS011;31958;51.756;-2.556;2023-05-16T11:24:57;3.40;;;1.77;;
45476;SDS011;31958;51.756;-2.556;2023-05-16T11:27:33;7.82;;;1.98;;
45476;SDS011;31958;51.756;-2.556;2023-05-16T11:32:33;4.57;;;2.08;;
45476;SDS011;31958;51.756;-2.556;2023-05-16T11:35:00;4.97;;;2.10;;
45476;SDS011;31958;51.756;-2.556;2023-05-16T11:37:29;5.38;;;2.00;;
45476;SDS011;31958;51.756;-2.556;2023-05-16T11:39:58;4.72;;;1.92;;
45476;SDS011;31958;51.756;-2.556;2023-05-16T11:42:27;7.72;;;2.70;;
45476;SDS011;31958;51.756;-2.556;2023-05-16T11:47:38;8.55;;;1.95;;
45476;SDS011;31958;51.756;-2.556;2023-05-16T11:50:14;3.85;;;1.60;;
45476;SDS011;31958;51.756;-2.556;2023-05-16T11:52:45;4.18;;;1.73;;
45476;SDS011;31958;51.756;-2.556;2023-05-16T11:55:12;6.72;;;1.98;;
45476;SDS011;31958;51.756;-2.556;2023-05-16T11:57:39;4.70;;;2.08;;
45476;SDS011;31958;51.756;-2.556;2023-05-16T12:00:19;7.57;;;2.22;;
45476;SDS011;31958;51.756;-2.556;2023-05-16T12:02:46;4.30;;;2.10;;
45476;SDS011;31958;51.756;-2.556;2023-05-16T12:05:12;8.52;;;2.00;;
45476;SDS011;31958;51.756;-2.556;2023-05-16T12:07:39;13.00;;;2.15;;
45476;SDS011;31958;51.756;-2.556;2023-05-16T12:10:06;4.57;;;2.08;;
45476;SDS011;31958;51.756;-2.556;2023-05-16T12:12:33;5.35;;;2.17;;
45476;SDS011;31958;51.756;-2.556;2023-05-16T12:14:59;8.40;;;2.22;;
45476;SDS011;31958;51.756;-2.556;2023-05-16T12:17:25;8.75;;;1.80;;
45476;SDS011;31958;51.756;-2.556;2023-05-16T12:19:51;7.15;;;1.77;;
45476;SDS011;31958;51.756;-2.556;2023-05-16T12:22:16;6.68;;;1.75;;
45476;SDS011;31958;51.756;-2.556;2023-05-16T12:24:44;3.00;;;1.40;;
45476;SDS011;31958;51.756;-2.556;2023-05-16T12:27:10;8.90;;;2.13;;
45476;SDS011;31958;51.756;-2.556;2023-05-16T12:29:36;5.68;;;1.60;;
45476;SDS011;31958;51.756;-2.556;2023-05-16T12:32:02;10.23;;;2.20;;
45476;SDS011;31958;51.756;-2.556;2023-05-16T12:34:28;5.10;;;1.92;;
45476;SDS011;31958;51.756;-2.556;2023-05-16T12:36:54;4.32;;;1.88;;
45476;SDS011;31958;51.756;-2.556;2023-05-16T12:39:19;4.13;;;1.90;;
45476;SDS011;31958;51.756;-2.556;2023-05-16T12:41:45;7.05;;;2.25;;
45476;SDS011;31958;51.756;-2.556;2023-05-16T12:46:44;6.47;;;1.83;;
45476;SDS011;31958;51.756;-2.556;2023-05-16T12:49:20;4.35;;;1.80;;
45476;SDS011;31958;51.756;-2.556;2023-05-16T12:51:49;3.80;;;1.83;;
45476;SDS011;31958;51.756;-2.556;2023-05-16T12:54:16;5.13;;;1.92;;
45476;SDS011;31958;51.756;-2.556;2023-05-16T12:56:42;4.45;;;1.80;;
45476;SDS011;31958;51.756;-2.556;2023-05-16T12:59:08;6.03;;;1.60;;
45476;SDS011;31958;51.756;-2.556;2023-05-16T13:01:34;4.00;;;1.63;;
45476;SDS011;31958;51.756;-2.556;2023-05-16T13:04:00;7.03;;;2.42;;
45476;SDS011;31958;51.756;-2.556;2023-05-16T13:06:25;4.38;;;1.63;;
45476;SDS011;31958;51.756;-2.556;2023-05-16T13:08:52;5.90;;;2.30;;
45476;SDS011;31958;51.756;-2.556;2023-05-16T13:11:17;5.45;;;2.00;;
45476;SDS011;31958;51.756;-2.556;2023-05-16T13:13:43;4.00;;;1.73;;
45476;SDS011;31958;51.756;-2.556;2023-05-16T13:16:09;4.32;;;1.70;;
45476;SDS011;31958;51.756;-2.556;2023-05-16T13:18:34;9.00;;;2.05;;
45476;SDS011;31958;51.756;-2.556;2023-05-16T13:21:00;5.53;;;2.30;;
45476;SDS011;31958;51.756;-2.556;2023-05-16T13:23:27;6.60;;;2.03;;
45476;SDS011;31958;51.756;-2.556;2023-05-16T13:25:53;3.88;;;1.85;;
45476;SDS011;31958;51.756;-2.556;2023-05-16T13:28:19;5.80;;;2.20;;
45476;SDS011;31958;51.756;-2.556;2023-05-16T13:30:45;8.18;;;2.30;;
45476;SDS011;31958;51.756;-2.556;2023-05-16T13:33:10;5.22;;;2.30;;
45476;SDS011;31958;51.756;-2.556;2023-05-16T13:35:36;6.72;;;2.25;;
45476;SDS011;31958;51.756;-2.556;2023-05-16T13:38:02;8.05;;;2.00;;
45476;SDS011;31958;51.756;-2.556;2023-05-16T13:40:27;9.98;;;2.38;;
45476;SDS011;31958;51.756;-2.556;2023-05-16T13:42:53;4.22;;;2.00;;
45476;SDS011;31958;51.756;-2.556;2023-05-16T13:45:18;6.53;;;2.58;;
45476;SDS011;31958;51.756;-2.556;2023-05-16T13:47:44;5.60;;;2.05;;
45476;SDS011;31958;51.756;-2.556;2023-05-16T13:50:09;8.75;;;2.40;;
45476;SDS011;31958;51.756;-2.556;2023-05-16T13:52:36;7.88;;;2.95;;
45476;SDS011;31958;51.756;-2.556;2023-05-16T13:55:02;5.43;;;2.30;;
45476;SDS011;31958;51.756;-2.556;2023-05-16T13:57:28;8.00;;;2.17;;
45476;SDS011;31958;51.756;-2.556;2023-05-16T13:59:53;5.95;;;2.40;;
45476;SDS011;31958;51.756;-2.556;2023-05-16T14:02:18;6.32;;;2.22;;
45476;SDS011;31958;51.756;-2.556;2023-05-16T14:04:44;5.30;;;2.00;;
45476;SDS011;31958;51.756;-2.556;2023-05-16T14:07:09;4.90;;;2.05;;
45476;SDS011;31958;51.756;-2.556;2023-05-16T14:09:35;5.15;;;2.40;;
45476;SDS011;31958;51.756;-2.556;2023-05-16T14:12:03;6.32;;;2.30;;
45476;SDS011;31958;51.756;-2.556;2023-05-16T14:14:31;5.43;;;2.45;;
45476;SDS011;31958;51.756;-2.556;2023-05-16T14:16:57;8.43;;;2.35;;
45476;SDS011;31958;51.756;-2.556;2023-05-16T14:19:23;8.63;;;2.58;;
45476;SDS011;31958;51.756;-2.556;2023-05-16T14:21:48;9.02;;;2.53;;
45476;SDS011;31958;51.756;-2.556;2023-05-16T14:24:14;4.47;;;2.05;;
45476;SDS011;31958;51.756;-2.556;2023-05-16T14:26:39;7.65;;;2.35;;
45476;SDS011;31958;51.756;-2.556;2023-05-16T14:29:05;6.65;;;2.63;;
45476;SDS011;31958;51.756;-2.556;2023-05-16T14:31:30;6.75;;;2.42;;
45476;SDS011;31958;51.756;-2.556;2023-05-16T14:33:56;7.32;;;2.40;;
45476;SDS011;31958;51.756;-2.556;2023-05-16T14:36:22;7.47;;;2.40;;
45476;SDS011;31958;51.756;-2.556;2023-05-16T14:38:48;4.53;;;2.15;;
45476;SDS011;31958;51.756;-2.556;2023-05-16T14:41:13;7.50;;;2.30;;
45476;SDS011;31958;51.756;-2.556;2023-05-16T14:43:39;8.80;;;2.40;;
45476;SDS011;31958;51.756;-2.556;2023-05-16T14:46:04;4.97;;;2.20;;
45476;SDS011;31958;51.756;-2.556;2023-05-16T14:48:30;8.80;;;2.53;;
45476;SDS011;31958;51.756;-2.556;2023-05-16T14:50:55;8.57;;;2.80;;
45476;SDS011;31958;51.756;-2.556;2023-05-16T14:53:20;5.00;;;2.22;;
45476;SDS011;31958;51.756;-2.556;2023-05-16T14:55:46;6.53;;;2.38;;
45476;SDS011;31958;51.756;-2.556;2023-05-16T14:58:13;6.78;;;2.78;;
45476;SDS011;31958;51.756;-2.556;2023-05-16T15:00:38;6.93;;;2.63;;
45476;SDS011;31958;51.756;-2.556;2023-05-16T15:03:03;7.63;;;2.80;;
45476;SDS011;31958;51.756;-2.556;2023-05-16T15:05:29;5.40;;;2.40;;
45476;SDS011;31958;51.756;-2.556;2023-05-16T15:07:54;7.55;;;2.90;;
45476;SDS011;31958;51.756;-2.556;2023-05-16T15:10:20;6.75;;;2.20;;
45476;SDS011;31958;51.756;-2.556;2023-05-16T15:12:45;5.90;;;2.33;;
45476;SDS011;31958;51.756;-2.556;2023-05-16T15:15:10;10.18;;;2.95;;